This is the latest recevied weather packets stored in our database for station/object K9RJT. If no packets are shown the sender has not sent any weather packets the latest 1 day(s).
| Time | Temp. | Humidity | Pressure | Rain* | Wind** | Luminosity | Snow |
|---|---|---|---|---|---|---|---|
| 1778080702 | 13.89° C | 62% | 1015.3 hPa | 0 mm | - | 298 W/m² | - |
| 1778077673 | 10.56° C | 71% | 1015 hPa | 0 mm | - | 166 W/m² | - |
| 1778076464 | 9.44° C | 74% | 1014.6 hPa | 0 mm | - | 116 W/m² | - |
| 1778075251 | 8.89° C | 76% | 1014.3 hPa | 0 mm | - | 72 W/m² | - |
| 1778074947 | 8.33° C | 77% | 1014.2 hPa | 0 mm | - | 63 W/m² | - |
| 1778074341 | 7.22° C | 80% | 1014.2 hPa | 0 mm | - | 47 W/m² | - |
| 1778074038 | 6.67° C | 81% | 1014.3 hPa | 0 mm | - | 39 W/m² | - |
| 1778073735 | 6.67° C | 81% | 1014.5 hPa | 0 mm | - | 32 W/m² | - |
| 1778073433 | 7.22° C | 80% | 1014.3 hPa | 0 mm | - | 25 W/m² | - |
| 1778073129 | 6.67° C | 80% | 1014.1 hPa | 0 mm | - | 20 W/m² | - |
| 1778071616 | 6.67° C | 81% | 1013.8 hPa | 0 mm | - | 3 W/m² | - |
| 1778070406 | 6.67° C | 81% | 1014 hPa | 0 mm | - | 0 W/m² | - |
| 1778070104 | 6.67° C | 80% | 1013.9 hPa | 0 mm | - | 0 W/m² | - |
| 1778069196 | 7.22° C | 79% | 1013.8 hPa | 0 mm | - | 0 W/m² | - |
| 1778068591 | 7.78° C | 78% | 1013.8 hPa | 0 mm | - | 0 W/m² | - |
| 1778068289 | 7.78° C | 78% | 1013.9 hPa | 0 mm | - | 0 W/m² | - |
| 1778067986 | 7.78° C | 78% | 1013.6 hPa | 0 mm | - | 0 W/m² | - |
| 1778067684 | 7.78° C | 78% | 1013.7 hPa | 0 mm | - | 0 W/m² | - |
| 1778067382 | 7.78° C | 78% | 1013.7 hPa | 0 mm | - | 0 W/m² | - |
| 1778067079 | 7.22° C | 78% | 1013.6 hPa | 0 mm | - | 0 W/m² | - |
| 1778066775 | 7.22° C | 78% | 1013.3 hPa | 0 mm | - | 0 W/m² | - |
| 1778066473 | 7.78° C | 77% | 1013.5 hPa | 0 mm | - | 0 W/m² | - |
| 1778065868 | 7.78° C | 77% | 1013.3 hPa | 0 mm | - | 0 W/m² | - |
| 1778065565 | 7.78° C | 76% | 1013.3 hPa | 0 mm | - | 0 W/m² | - |
| 1778064354 | 8.33° C | 75% | 1013.3 hPa | 0 mm | - | 0 W/m² | - |
* Rain latest hour (hover to see other rain measurements)
** Current wind speed in m/s (hover to see current wind gust speed)